sensor_id;sensor_type;location;lat;lon;timestamp;temperature;humidity
57434;DHT22;43277;52.672;6.984;2022-08-27T00:01:35;18.70;99.90
57434;DHT22;43277;52.672;6.984;2022-08-27T00:04:01;18.60;99.90
57434;DHT22;43277;52.672;6.984;2022-08-27T00:06:27;18.60;99.90
57434;DHT22;43277;52.672;6.984;2022-08-27T00:08:53;18.60;99.90
57434;DHT22;43277;52.672;6.984;2022-08-27T00:11:20;18.60;99.90
57434;DHT22;43277;52.672;6.984;2022-08-27T00:13:47;18.70;99.90
57434;DHT22;43277;52.672;6.984;2022-08-27T00:16:14;18.60;99.90
57434;DHT22;43277;52.672;6.984;2022-08-27T00:18:42;18.60;99.90
57434;DHT22;43277;52.672;6.984;2022-08-27T00:21:08;18.60;99.90
57434;DHT22;43277;52.672;6.984;2022-08-27T00:23:35;18.50;99.90
57434;DHT22;43277;52.672;6.984;2022-08-27T00:26:01;18.60;99.90
57434;DHT22;43277;52.672;6.984;2022-08-27T00:28:28;18.50;99.90
57434;DHT22;43277;52.672;6.984;2022-08-27T00:30:54;18.40;99.90
57434;DHT22;43277;52.672;6.984;2022-08-27T00:33:21;18.50;99.90
57434;DHT22;43277;52.672;6.984;2022-08-27T00:35:46;18.50;99.90
57434;DHT22;43277;52.672;6.984;2022-08-27T00:38:12;18.60;99.90
57434;DHT22;43277;52.672;6.984;2022-08-27T00:40:38;18.50;99.90
57434;DHT22;43277;52.672;6.984;2022-08-27T00:43:03;18.50;99.90
57434;DHT22;43277;52.672;6.984;2022-08-27T00:45:32;18.40;99.90
57434;DHT22;43277;52.672;6.984;2022-08-27T00:48:01;18.40;99.90
57434;DHT22;43277;52.672;6.984;2022-08-27T00:50:39;18.40;99.90
57434;DHT22;43277;52.672;6.984;2022-08-27T00:53:11;18.40;99.90
57434;DHT22;43277;52.672;6.984;2022-08-27T00:55:56;18.40;99.90
57434;DHT22;43277;52.672;6.984;2022-08-27T00:58:29;18.40;99.90
57434;DHT22;43277;52.672;6.984;2022-08-27T01:03:24;18.40;99.90
57434;DHT22;43277;52.672;6.984;2022-08-27T01:05:52;18.30;99.90
57434;DHT22;43277;52.672;6.984;2022-08-27T01:08:24;18.40;99.90
57434;DHT22;43277;52.672;6.984;2022-08-27T01:10:51;18.30;99.90
57434;DHT22;43277;52.672;6.984;2022-08-27T01:13:20;18.40;99.90
57434;DHT22;43277;52.672;6.984;2022-08-27T01:15:46;18.20;99.90
57434;DHT22;43277;52.672;6.984;2022-08-27T01:18:13;18.20;99.90
57434;DHT22;43277;52.672;6.984;2022-08-27T01:20:55;18.30;99.90
57434;DHT22;43277;52.672;6.984;2022-08-27T01:23:56;18.20;99.90
57434;DHT22;43277;52.672;6.984;2022-08-27T01:26:26;18.20;99.90
57434;DHT22;43277;52.672;6.984;2022-08-27T01:28:53;18.20;99.90
57434;DHT22;43277;52.672;6.984;2022-08-27T01:31:19;18.10;99.90
57434;DHT22;43277;52.672;6.984;2022-08-27T01:33:56;18.20;99.90
57434;DHT22;43277;52.672;6.984;2022-08-27T01:36:22;18.10;99.90
57434;DHT22;43277;52.672;6.984;2022-08-27T01:38:48;18.10;99.90
57434;DHT22;43277;52.672;6.984;2022-08-27T01:41:15;18.10;99.90
57434;DHT22;43277;52.672;6.984;2022-08-27T01:43:40;18.10;99.90
57434;DHT22;43277;52.672;6.984;2022-08-27T01:46:06;18.00;99.90
57434;DHT22;43277;52.672;6.984;2022-08-27T01:48:31;18.10;99.90
57434;DHT22;43277;52.672;6.984;2022-08-27T01:50:57;18.00;99.90
57434;DHT22;43277;52.672;6.984;2022-08-27T01:56:42;17.90;99.90
57434;DHT22;43277;52.672;6.984;2022-08-27T01:59:08;17.80;99.90
57434;DHT22;43277;52.672;6.984;2022-08-27T02:01:34;17.90;99.90
57434;DHT22;43277;52.672;6.984;2022-08-27T02:03:59;17.90;99.90
57434;DHT22;43277;52.672;6.984;2022-08-27T02:06:25;17.80;99.90
57434;DHT22;43277;52.672;6.984;2022-08-27T02:08:50;17.90;99.90
57434;DHT22;43277;52.672;6.984;2022-08-27T02:11:16;17.80;99.90
57434;DHT22;43277;52.672;6.984;2022-08-27T02:13:42;17.80;99.90
57434;DHT22;43277;52.672;6.984;2022-08-27T02:16:07;17.80;99.90
57434;DHT22;43277;52.672;6.984;2022-08-27T02:18:35;17.70;99.90
57434;DHT22;43277;52.672;6.984;2022-08-27T02:21:01;17.80;99.90
57434;DHT22;43277;52.672;6.984;2022-08-27T02:23:27;17.80;99.90
57434;DHT22;43277;52.672;6.984;2022-08-27T02:25:52;17.80;99.90
57434;DHT22;43277;52.672;6.984;2022-08-27T02:28:18;17.70;99.90
57434;DHT22;43277;52.672;6.984;2022-08-27T02:30:44;17.70;99.90
57434;DHT22;43277;52.672;6.984;2022-08-27T02:33:10;17.70;99.90
57434;DHT22;43277;52.672;6.984;2022-08-27T02:35:37;17.80;99.90
57434;DHT22;43277;52.672;6.984;2022-08-27T02:38:07;17.70;99.90
57434;DHT22;43277;52.672;6.984;2022-08-27T02:40:33;17.60;99.90
57434;DHT22;43277;52.672;6.984;2022-08-27T02:42:58;17.70;99.90
57434;DHT22;43277;52.672;6.984;2022-08-27T02:45:24;17.70;99.90
57434;DHT22;43277;52.672;6.984;2022-08-27T02:47:49;17.70;99.90
57434;DHT22;43277;52.672;6.984;2022-08-27T02:50:16;17.70;99.90
57434;DHT22;43277;52.672;6.984;2022-08-27T02:52:42;17.60;99.90
57434;DHT22;43277;52.672;6.984;2022-08-27T02:55:09;17.60;99.90
57434;DHT22;43277;52.672;6.984;2022-08-27T02:57:35;17.60;99.90
57434;DHT22;43277;52.672;6.984;2022-08-27T03:00:00;17.60;99.90
57434;DHT22;43277;52.672;6.984;2022-08-27T03:02:26;17.60;99.90
57434;DHT22;43277;52.672;6.984;2022-08-27T03:04:52;17.60;99.90
57434;DHT22;43277;52.672;6.984;2022-08-27T03:07:17;17.60;99.90
57434;DHT22;43277;52.672;6.984;2022-08-27T03:09:43;17.60;99.90
57434;DHT22;43277;52.672;6.984;2022-08-27T03:12:09;17.50;99.90
57434;DHT22;43277;52.672;6.984;2022-08-27T03:14:34;17.50;99.90
57434;DHT22;43277;52.672;6.984;2022-08-27T03:17:00;17.50;99.90
57434;DHT22;43277;52.672;6.984;2022-08-27T03:19:46;17.40;99.90
57434;DHT22;43277;52.672;6.984;2022-08-27T03:22:12;17.40;99.90
57434;DHT22;43277;52.672;6.984;2022-08-27T03:24:38;17.30;99.90
57434;DHT22;43277;52.672;6.984;2022-08-27T03:27:07;17.30;99.90
57434;DHT22;43277;52.672;6.984;2022-08-27T03:29:34;17.30;99.90
57434;DHT22;43277;52.672;6.984;2022-08-27T03:32:01;17.30;99.90
57434;DHT22;43277;52.672;6.984;2022-08-27T03:34:26;17.30;99.90
57434;DHT22;43277;52.672;6.984;2022-08-27T03:36:52;17.20;99.90
57434;DHT22;43277;52.672;6.984;2022-08-27T03:39:18;17.20;99.90
57434;DHT22;43277;52.672;6.984;2022-08-27T03:41:44;17.30;99.90
57434;DHT22;43277;52.672;6.984;2022-08-27T03:44:09;17.30;99.90
57434;DHT22;43277;52.672;6.984;2022-08-27T03:46:36;17.20;99.90
57434;DHT22;43277;52.672;6.984;2022-08-27T03:49:02;17.20;99.90
57434;DHT22;43277;52.672;6.984;2022-08-27T03:51:27;17.20;99.90
57434;DHT22;43277;52.672;6.984;2022-08-27T03:53:53;17.20;99.90
57434;DHT22;43277;52.672;6.984;2022-08-27T03:56:18;17.10;99.90
57434;DHT22;43277;52.672;6.984;2022-08-27T03:58:44;17.10;99.90
57434;DHT22;43277;52.672;6.984;2022-08-27T04:01:10;17.10;99.90
57434;DHT22;43277;52.672;6.984;2022-08-27T04:03:36;17.00;99.90
57434;DHT22;43277;52.672;6.984;2022-08-27T04:06:02;17.00;99.90
57434;DHT22;43277;52.672;6.984;2022-08-27T04:08:28;16.90;99.90
57434;DHT22;43277;52.672;6.984;2022-08-27T04:10:54;16.90;99.90
57434;DHT22;43277;52.672;6.984;2022-08-27T04:13:21;16.90;99.90
57434;DHT22;43277;52.672;6.984;2022-08-27T04:15:49;16.90;99.90
57434;DHT22;43277;52.672;6.984;2022-08-27T04:18:15;16.90;99.90
57434;DHT22;43277;52.672;6.984;2022-08-27T04:20:46;16.90;99.90
57434;DHT22;43277;52.672;6.984;2022-08-27T04:23:12;16.90;99.90
57434;DHT22;43277;52.672;6.984;2022-08-27T04:25:42;16.80;99.90
57434;DHT22;43277;52.672;6.984;2022-08-27T04:28:09;16.80;99.90
57434;DHT22;43277;52.672;6.984;2022-08-27T04:30:39;16.80;99.90
57434;DHT22;43277;52.672;6.984;2022-08-27T04:33:04;16.80;99.90
57434;DHT22;43277;52.672;6.984;2022-08-27T04:35:30;16.80;99.90
57434;DHT22;43277;52.672;6.984;2022-08-27T04:37:56;16.80;99.90
57434;DHT22;43277;52.672;6.984;2022-08-27T04:40:22;16.80;99.90
57434;DHT22;43277;52.672;6.984;2022-08-27T04:43:07;16.80;99.90
57434;DHT22;43277;52.672;6.984;2022-08-27T04:45:33;16.80;99.90
57434;DHT22;43277;52.672;6.984;2022-08-27T04:48:06;16.80;99.90
57434;DHT22;43277;52.672;6.984;2022-08-27T04:50:31;16.80;99.90
57434;DHT22;43277;52.672;6.984;2022-08-27T04:52:57;16.80;99.90
57434;DHT22;43277;52.672;6.984;2022-08-27T04:55:22;16.90;99.90
57434;DHT22;43277;52.672;6.984;2022-08-27T04:57:48;16.90;99.90
57434;DHT22;43277;52.672;6.984;2022-08-27T05:00:14;16.90;99.90
57434;DHT22;43277;52.672;6.984;2022-08-27T05:02:40;16.90;99.90
57434;DHT22;43277;52.672;6.984;2022-08-27T05:05:06;16.90;99.90
57434;DHT22;43277;52.672;6.984;2022-08-27T05:07:31;16.90;99.90
57434;DHT22;43277;52.672;6.984;2022-08-27T05:09:57;16.90;99.90
57434;DHT22;43277;52.672;6.984;2022-08-27T05:12:22;16.80;99.90
57434;DHT22;43277;52.672;6.984;2022-08-27T05:14:48;17.00;99.90
57434;DHT22;43277;52.672;6.984;2022-08-27T05:17:13;17.00;99.90
57434;DHT22;43277;52.672;6.984;2022-08-27T05:19:39;17.00;99.90
57434;DHT22;43277;52.672;6.984;2022-08-27T05:22:04;17.00;99.90
57434;DHT22;43277;52.672;6.984;2022-08-27T05:24:30;17.00;99.90
57434;DHT22;43277;52.672;6.984;2022-08-27T05:26:56;17.00;99.90
57434;DHT22;43277;52.672;6.984;2022-08-27T05:29:22;17.10;99.90
57434;DHT22;43277;52.672;6.984;2022-08-27T05:31:48;17.10;99.90
57434;DHT22;43277;52.672;6.984;2022-08-27T05:34:14;17.10;99.90
57434;DHT22;43277;52.672;6.984;2022-08-27T05:36:41;17.10;99.90
57434;DHT22;43277;52.672;6.984;2022-08-27T05:39:07;17.10;99.90
57434;DHT22;43277;52.672;6.984;2022-08-27T05:41:33;17.10;99.90
57434;DHT22;43277;52.672;6.984;2022-08-27T05:44:02;17.10;99.90
57434;DHT22;43277;52.672;6.984;2022-08-27T05:46:28;17.10;99.90
57434;DHT22;43277;52.672;6.984;2022-08-27T05:48:56;17.10;99.90
57434;DHT22;43277;52.672;6.984;2022-08-27T05:51:26;17.10;99.90
57434;DHT22;43277;52.672;6.984;2022-08-27T05:53:58;17.20;99.90
57434;DHT22;43277;52.672;6.984;2022-08-27T05:56:26;17.20;99.90
57434;DHT22;43277;52.672;6.984;2022-08-27T05:58:53;17.20;99.90
57434;DHT22;43277;52.672;6.984;2022-08-27T06:01:41;17.20;99.90
57434;DHT22;43277;52.672;6.984;2022-08-27T06:04:08;17.30;99.90
57434;DHT22;43277;52.672;6.984;2022-08-27T06:06:38;17.30;99.90
57434;DHT22;43277;52.672;6.984;2022-08-27T06:09:05;17.40;99.90
57434;DHT22;43277;52.672;6.984;2022-08-27T06:11:31;17.40;99.90
57434;DHT22;43277;52.672;6.984;2022-08-27T06:13:57;17.40;99.90
57434;DHT22;43277;52.672;6.984;2022-08-27T06:16:23;17.40;99.90
57434;DHT22;43277;52.672;6.984;2022-08-27T06:18:48;17.50;99.90
57434;DHT22;43277;52.672;6.984;2022-08-27T06:21:17;17.50;99.90
57434;DHT22;43277;52.672;6.984;2022-08-27T06:23:44;17.50;99.90
57434;DHT22;43277;52.672;6.984;2022-08-27T06:26:12;17.50;99.90
57434;DHT22;43277;52.672;6.984;2022-08-27T06:28:38;17.50;99.90
57434;DHT22;43277;52.672;6.984;2022-08-27T06:31:18;17.50;99.90
57434;DHT22;43277;52.672;6.984;2022-08-27T06:33:45;17.50;99.90
57434;DHT22;43277;52.672;6.984;2022-08-27T06:36:14;17.60;99.90
57434;DHT22;43277;52.672;6.984;2022-08-27T06:38:40;17.50;99.90
57434;DHT22;43277;52.672;6.984;2022-08-27T06:41:08;17.70;99.90
57434;DHT22;43277;52.672;6.984;2022-08-27T06:43:36;17.80;99.90
57434;DHT22;43277;52.672;6.984;2022-08-27T06:46:04;17.80;99.90
57434;DHT22;43277;52.672;6.984;2022-08-27T06:48:30;17.80;99.90
57434;DHT22;43277;52.672;6.984;2022-08-27T06:50:56;17.80;99.90
57434;DHT22;43277;52.672;6.984;2022-08-27T06:53:22;17.90;99.90
57434;DHT22;43277;52.672;6.984;2022-08-27T06:55:48;18.00;99.90
57434;DHT22;43277;52.672;6.984;2022-08-27T06:58:15;18.00;99.90
57434;DHT22;43277;52.672;6.984;2022-08-27T07:00:42;18.10;99.90
57434;DHT22;43277;52.672;6.984;2022-08-27T07:03:09;18.10;99.90
57434;DHT22;43277;52.672;6.984;2022-08-27T07:05:37;18.20;99.90
57434;DHT22;43277;52.672;6.984;2022-08-27T07:08:04;18.30;99.90
57434;DHT22;43277;52.672;6.984;2022-08-27T07:10:31;18.50;99.90
57434;DHT22;43277;52.672;6.984;2022-08-27T07:12:57;18.50;99.90
57434;DHT22;43277;52.672;6.984;2022-08-27T07:15:22;18.60;99.90
57434;DHT22;43277;52.672;6.984;2022-08-27T07:17:48;18.70;99.90
57434;DHT22;43277;52.672;6.984;2022-08-27T07:20:15;18.70;99.90
57434;DHT22;43277;52.672;6.984;2022-08-27T07:22:43;18.90;99.90
57434;DHT22;43277;52.672;6.984;2022-08-27T07:25:11;18.90;99.90
57434;DHT22;43277;52.672;6.984;2022-08-27T07:27:38;19.00;99.90
57434;DHT22;43277;52.672;6.984;2022-08-27T07:30:06;19.10;99.90
57434;DHT22;43277;52.672;6.984;2022-08-27T07:32:32;19.10;99.90
57434;DHT22;43277;52.672;6.984;2022-08-27T07:34:58;19.20;99.90
57434;DHT22;43277;52.672;6.984;2022-08-27T07:37:24;19.30;99.90
57434;DHT22;43277;52.672;6.984;2022-08-27T07:39:49;19.30;99.90
57434;DHT22;43277;52.672;6.984;2022-08-27T07:42:15;19.40;99.90
57434;DHT22;43277;52.672;6.984;2022-08-27T07:44:59;19.50;99.90
57434;DHT22;43277;52.672;6.984;2022-08-27T07:47:25;19.70;99.90
57434;DHT22;43277;52.672;6.984;2022-08-27T07:49:50;19.90;99.90
57434;DHT22;43277;52.672;6.984;2022-08-27T07:52:16;19.90;99.90
57434;DHT22;43277;52.672;6.984;2022-08-27T07:54:42;20.00;99.90
57434;DHT22;43277;52.672;6.984;2022-08-27T07:57:09;20.10;99.90
57434;DHT22;43277;52.672;6.984;2022-08-27T07:59:35;20.30;99.90
57434;DHT22;43277;52.672;6.984;2022-08-27T08:02:00;20.30;99.90
57434;DHT22;43277;52.672;6.984;2022-08-27T08:04:26;20.50;99.90
57434;DHT22;43277;52.672;6.984;2022-08-27T08:06:53;20.60;99.90
57434;DHT22;43277;52.672;6.984;2022-08-27T08:09:20;20.80;99.90
57434;DHT22;43277;52.672;6.984;2022-08-27T08:11:49;20.90;99.90
57434;DHT22;43277;52.672;6.984;2022-08-27T08:14:15;21.10;99.90
57434;DHT22;43277;52.672;6.984;2022-08-27T08:16:41;21.20;99.90
57434;DHT22;43277;52.672;6.984;2022-08-27T08:19:07;21.30;99.90
57434;DHT22;43277;52.672;6.984;2022-08-27T08:21:34;21.30;99.90
57434;DHT22;43277;52.672;6.984;2022-08-27T08:24:00;21.20;99.90
57434;DHT22;43277;52.672;6.984;2022-08-27T08:26:27;21.20;99.90
57434;DHT22;43277;52.672;6.984;2022-08-27T08:28:53;21.10;99.90
57434;DHT22;43277;52.672;6.984;2022-08-27T08:31:19;21.00;99.90
57434;DHT22;43277;52.672;6.984;2022-08-27T08:33:44;20.90;99.90
57434;DHT22;43277;52.672;6.984;2022-08-27T08:36:13;20.90;99.90
57434;DHT22;43277;52.672;6.984;2022-08-27T08:38:41;20.90;99.90
57434;DHT22;43277;52.672;6.984;2022-08-27T08:43:56;20.80;99.90
57434;DHT22;43277;52.672;6.984;2022-08-27T08:46:40;20.80;99.90
57434;DHT22;43277;52.672;6.984;2022-08-27T08:52:31;20.80;99.90
57434;DHT22;43277;52.672;6.984;2022-08-27T08:55:39;20.70;99.90
57434;DHT22;43277;52.672;6.984;2022-08-27T09:01:10;20.60;99.90
57434;DHT22;43277;52.672;6.984;2022-08-27T09:03:39;20.50;99.90
57434;DHT22;43277;52.672;6.984;2022-08-27T09:06:10;20.50;99.90
57434;DHT22;43277;52.672;6.984;2022-08-27T09:08:41;20.60;99.90
57434;DHT22;43277;52.672;6.984;2022-08-27T09:11:34;20.90;99.90
57434;DHT22;43277;52.672;6.984;2022-08-27T09:14:33;21.30;99.90
57434;DHT22;43277;52.672;6.984;2022-08-27T09:17:00;21.60;99.90
57434;DHT22;43277;52.672;6.984;2022-08-27T09:19:26;21.80;99.40
57434;DHT22;43277;52.672;6.984;2022-08-27T09:22:02;22.20;99.90
57434;DHT22;43277;52.672;6.984;2022-08-27T09:27:11;22.70;97.60
57434;DHT22;43277;52.672;6.984;2022-08-27T09:29:50;22.70;96.80
57434;DHT22;43277;52.672;6.984;2022-08-27T09:32:20;22.60;97.40
57434;DHT22;43277;52.672;6.984;2022-08-27T09:34:46;22.50;98.20
57434;DHT22;43277;52.672;6.984;2022-08-27T09:37:15;22.40;98.00
57434;DHT22;43277;52.672;6.984;2022-08-27T09:39:49;22.30;97.90
57434;DHT22;43277;52.672;6.984;2022-08-27T09:42:43;22.10;97.90
57434;DHT22;43277;52.672;6.984;2022-08-27T09:45:12;22.10;98.20
57434;DHT22;43277;52.672;6.984;2022-08-27T09:50:20;22.00;98.80
57434;DHT22;43277;52.672;6.984;2022-08-27T09:52:57;21.90;98.50
57434;DHT22;43277;52.672;6.984;2022-08-27T09:55:35;22.00;99.20
57434;DHT22;43277;52.672;6.984;2022-08-27T09:58:05;22.00;99.10
57434;DHT22;43277;52.672;6.984;2022-08-27T10:00:40;22.00;99.30
57434;DHT22;43277;52.672;6.984;2022-08-27T10:03:08;22.00;99.10
57434;DHT22;43277;52.672;6.984;2022-08-27T10:05:47;21.90;99.10
57434;DHT22;43277;52.672;6.984;2022-08-27T10:08:34;21.90;97.90
57434;DHT22;43277;52.672;6.984;2022-08-27T10:11:09;22.00;98.20
57434;DHT22;43277;52.672;6.984;2022-08-27T10:17:05;22.10;98.50
57434;DHT22;43277;52.672;6.984;2022-08-27T10:19:58;22.20;98.50
57434;DHT22;43277;52.672;6.984;2022-08-27T10:22:47;22.20;98.20
57434;DHT22;43277;52.672;6.984;2022-08-27T10:25:37;22.30;98.20
57434;DHT22;43277;52.672;6.984;2022-08-27T10:28:22;22.30;98.30
57434;DHT22;43277;52.672;6.984;2022-08-27T10:39:23;22.60;97.40
57434;DHT22;43277;52.672;6.984;2022-08-27T10:42:13;22.70;96.90
57434;DHT22;43277;52.672;6.984;2022-08-27T10:45:22;22.80;95.70
57434;DHT22;43277;52.672;6.984;2022-08-27T10:50:44;22.90;96.80
57434;DHT22;43277;52.672;6.984;2022-08-27T10:58:40;22.80;96.20
57434;DHT22;43277;52.672;6.984;2022-08-27T11:01:20;22.70;96.40
57434;DHT22;43277;52.672;6.984;2022-08-27T11:04:10;22.60;96.50
57434;DHT22;43277;52.672;6.984;2022-08-27T11:06:45;22.50;96.20
57434;DHT22;43277;52.672;6.984;2022-08-27T11:09:16;22.40;96.70
57434;DHT22;43277;52.672;6.984;2022-08-27T11:11:56;22.40;96.60
57434;DHT22;43277;52.672;6.984;2022-08-27T11:17:17;22.50;97.00
57434;DHT22;43277;52.672;6.984;2022-08-27T11:22:29;22.60;97.20
57434;DHT22;43277;52.672;6.984;2022-08-27T11:27:35;23.40;95.10
57434;DHT22;43277;52.672;6.984;2022-08-27T11:30:04;23.60;94.10
57434;DHT22;43277;52.672;6.984;2022-08-27T11:32:44;23.80;93.70
57434;DHT22;43277;52.672;6.984;2022-08-27T11:35:21;23.90;92.90
57434;DHT22;43277;52.672;6.984;2022-08-27T11:38:02;23.90;93.50
57434;DHT22;43277;52.672;6.984;2022-08-27T11:43:06;24.00;93.20
57434;DHT22;43277;52.672;6.984;2022-08-27T11:45:35;24.00;93.20
57434;DHT22;43277;52.672;6.984;2022-08-27T11:48:29;23.80;93.30
57434;DHT22;43277;52.672;6.984;2022-08-27T11:51:00;23.70;93.10
57434;DHT22;43277;52.672;6.984;2022-08-27T11:53:30;23.60;93.10
57434;DHT22;43277;52.672;6.984;2022-08-27T11:55:57;23.60;93.00
57434;DHT22;43277;52.672;6.984;2022-08-27T11:58:34;23.60;93.20
57434;DHT22;43277;52.672;6.984;2022-08-27T12:00:59;23.60;93.70
57434;DHT22;43277;52.672;6.984;2022-08-27T12:03:31;23.80;93.40
57434;DHT22;43277;52.672;6.984;2022-08-27T12:14:44;24.50;92.90
57434;DHT22;43277;52.672;6.984;2022-08-27T12:16:50;24.80;92.10
57434;DHT22;43277;52.672;6.984;2022-08-27T12:19:22;25.10;92.00
57434;DHT22;43277;52.672;6.984;2022-08-27T12:22:02;25.50;91.50
57434;DHT22;43277;52.672;6.984;2022-08-27T12:24:53;25.90;89.40
57434;DHT22;43277;52.672;6.984;2022-08-27T12:32:45;26.60;83.90
57434;DHT22;43277;52.672;6.984;2022-08-27T12:37:50;26.50;80.90
57434;DHT22;43277;52.672;6.984;2022-08-27T12:40:39;26.30;79.50
57434;DHT22;43277;52.672;6.984;2022-08-27T12:43:11;26.10;82.90
57434;DHT22;43277;52.672;6.984;2022-08-27T12:45:49;25.80;80.30
57434;DHT22;43277;52.672;6.984;2022-08-27T12:48:29;25.80;81.90
57434;DHT22;43277;52.672;6.984;2022-08-27T12:51:00;25.60;82.70
57434;DHT22;43277;52.672;6.984;2022-08-27T12:54:04;25.40;82.80
57434;DHT22;43277;52.672;6.984;2022-08-27T13:04:50;25.00;83.70
57434;DHT22;43277;52.672;6.984;2022-08-27T13:07:28;24.90;83.00
57434;DHT22;43277;52.672;6.984;2022-08-27T13:09:54;24.90;85.70
57434;DHT22;43277;52.672;6.984;2022-08-27T13:12:23;25.10;84.40
57434;DHT22;43277;52.672;6.984;2022-08-27T13:14:48;25.20;85.10
57434;DHT22;43277;52.672;6.984;2022-08-27T13:17:19;25.20;84.90
57434;DHT22;43277;52.672;6.984;2022-08-27T13:19:49;25.20;84.80
57434;DHT22;43277;52.672;6.984;2022-08-27T13:22:35;25.20;84.00
57434;DHT22;43277;52.672;6.984;2022-08-27T13:25:04;25.20;82.90
57434;DHT22;43277;52.672;6.984;2022-08-27T13:27:32;25.10;83.00
57434;DHT22;43277;52.672;6.984;2022-08-27T13:30:09;25.20;80.70
57434;DHT22;43277;52.672;6.984;2022-08-27T13:32:36;25.50;82.10
57434;DHT22;43277;52.672;6.984;2022-08-27T13:35:02;25.50;81.10
57434;DHT22;43277;52.672;6.984;2022-08-27T13:37:36;25.50;82.90
57434;DHT22;43277;52.672;6.984;2022-08-27T13:40:04;25.30;82.50
57434;DHT22;43277;52.672;6.984;2022-08-27T13:42:30;25.20;81.90
57434;DHT22;43277;52.672;6.984;2022-08-27T13:45:02;25.00;83.20
57434;DHT22;43277;52.672;6.984;2022-08-27T13:47:28;25.00;83.00
57434;DHT22;43277;52.672;6.984;2022-08-27T13:50:05;25.00;83.50
57434;DHT22;43277;52.672;6.984;2022-08-27T13:52:37;24.90;84.60
57434;DHT22;43277;52.672;6.984;2022-08-27T13:55:28;24.90;83.20
57434;DHT22;43277;52.672;6.984;2022-08-27T13:57:54;24.80;82.90
57434;DHT22;43277;52.672;6.984;2022-08-27T14:00:28;24.70;85.00
57434;DHT22;43277;52.672;6.984;2022-08-27T14:02:54;24.80;85.20
57434;DHT22;43277;52.672;6.984;2022-08-27T14:08:00;25.00;85.00
57434;DHT22;43277;52.672;6.984;2022-08-27T14:10:43;25.30;83.20
57434;DHT22;43277;52.672;6.984;2022-08-27T14:13:19;25.50;81.00
57434;DHT22;43277;52.672;6.984;2022-08-27T14:15:50;25.40;80.50
57434;DHT22;43277;52.672;6.984;2022-08-27T14:18:35;25.30;80.10
57434;DHT22;43277;52.672;6.984;2022-08-27T14:21:03;25.20;80.90
57434;DHT22;43277;52.672;6.984;2022-08-27T14:23:29;25.10;82.20
57434;DHT22;43277;52.672;6.984;2022-08-27T14:25:57;25.20;81.60
57434;DHT22;43277;52.672;6.984;2022-08-27T14:28:23;25.40;80.90
57434;DHT22;43277;52.672;6.984;2022-08-27T14:30:49;25.80;80.00
57434;DHT22;43277;52.672;6.984;2022-08-27T14:33:15;26.10;80.30
57434;DHT22;43277;52.672;6.984;2022-08-27T14:35:41;26.00;76.80
57434;DHT22;43277;52.672;6.984;2022-08-27T14:38:15;25.90;77.30
57434;DHT22;43277;52.672;6.984;2022-08-27T14:40:46;25.80;78.20
57434;DHT22;43277;52.672;6.984;2022-08-27T14:43:13;25.60;78.20
57434;DHT22;43277;52.672;6.984;2022-08-27T14:45:39;25.50;79.40
57434;DHT22;43277;52.672;6.984;2022-08-27T14:48:14;25.30;80.10
57434;DHT22;43277;52.672;6.984;2022-08-27T14:50:40;25.10;80.10
57434;DHT22;43277;52.672;6.984;2022-08-27T14:53:07;25.00;81.70
57434;DHT22;43277;52.672;6.984;2022-08-27T14:55:32;25.20;80.60
57434;DHT22;43277;52.672;6.984;2022-08-27T14:57:59;25.60;80.40
57434;DHT22;43277;52.672;6.984;2022-08-27T15:00:25;25.80;78.60
57434;DHT22;43277;52.672;6.984;2022-08-27T15:02:51;25.70;79.10
57434;DHT22;43277;52.672;6.984;2022-08-27T15:05:18;25.70;81.30
57434;DHT22;43277;52.672;6.984;2022-08-27T15:07:44;26.00;78.80
57434;DHT22;43277;52.672;6.984;2022-08-27T15:10:10;25.90;78.30
57434;DHT22;43277;52.672;6.984;2022-08-27T15:12:36;25.80;79.30
57434;DHT22;43277;52.672;6.984;2022-08-27T15:15:04;25.60;80.20
57434;DHT22;43277;52.672;6.984;2022-08-27T15:17:30;25.30;79.20
57434;DHT22;43277;52.672;6.984;2022-08-27T15:19:56;25.00;80.60
57434;DHT22;43277;52.672;6.984;2022-08-27T15:22:23;24.80;80.60
57434;DHT22;43277;52.672;6.984;2022-08-27T15:24:54;24.60;81.20
57434;DHT22;43277;52.672;6.984;2022-08-27T15:27:20;24.50;82.70
57434;DHT22;43277;52.672;6.984;2022-08-27T15:29:46;24.40;82.50
57434;DHT22;43277;52.672;6.984;2022-08-27T15:32:28;24.80;81.70
57434;DHT22;43277;52.672;6.984;2022-08-27T15:34:55;25.50;80.40
57434;DHT22;43277;52.672;6.984;2022-08-27T15:37:22;26.00;77.40
57434;DHT22;43277;52.672;6.984;2022-08-27T15:39:47;25.90;77.60
57434;DHT22;43277;52.672;6.984;2022-08-27T15:42:13;25.60;78.20
57434;DHT22;43277;52.672;6.984;2022-08-27T15:44:49;25.30;79.20
57434;DHT22;43277;52.672;6.984;2022-08-27T15:47:15;25.50;78.30
57434;DHT22;43277;52.672;6.984;2022-08-27T15:49:41;26.10;76.50
57434;DHT22;43277;52.672;6.984;2022-08-27T15:52:12;26.20;76.20
57434;DHT22;43277;52.672;6.984;2022-08-27T15:54:38;26.70;74.40
57434;DHT22;43277;52.672;6.984;2022-08-27T15:57:05;27.30;73.90
57434;DHT22;43277;52.672;6.984;2022-08-27T15:59:31;28.20;70.60
57434;DHT22;43277;52.672;6.984;2022-08-27T16:01:58;28.90;67.60
57434;DHT22;43277;52.672;6.984;2022-08-27T16:04:23;28.90;66.20
57434;DHT22;43277;52.672;6.984;2022-08-27T16:06:49;28.50;66.90
57434;DHT22;43277;52.672;6.984;2022-08-27T16:09:15;28.00;66.10
57434;DHT22;43277;52.672;6.984;2022-08-27T16:11:42;27.80;67.90
57434;DHT22;43277;52.672;6.984;2022-08-27T16:14:13;28.30;66.70
57434;DHT22;43277;52.672;6.984;2022-08-27T16:16:44;29.10;63.10
57434;DHT22;43277;52.672;6.984;2022-08-27T16:19:11;29.80;60.90
57434;DHT22;43277;52.672;6.984;2022-08-27T16:21:37;29.90;59.40
57434;DHT22;43277;52.672;6.984;2022-08-27T16:24:05;30.40;57.70
57434;DHT22;43277;52.672;6.984;2022-08-27T16:26:32;31.10;55.90
57434;DHT22;43277;52.672;6.984;2022-08-27T16:28:57;31.60;53.80
57434;DHT22;43277;52.672;6.984;2022-08-27T16:31:23;32.00;51.00
57434;DHT22;43277;52.672;6.984;2022-08-27T16:33:49;32.20;49.50
57434;DHT22;43277;52.672;6.984;2022-08-27T16:36:14;32.40;47.40
57434;DHT22;43277;52.672;6.984;2022-08-27T16:38:40;32.20;46.30
57434;DHT22;43277;52.672;6.984;2022-08-27T16:41:06;31.60;47.60
57434;DHT22;43277;52.672;6.984;2022-08-27T16:43:32;31.40;48.80
57434;DHT22;43277;52.672;6.984;2022-08-27T16:45:59;31.50;48.70
57434;DHT22;43277;52.672;6.984;2022-08-27T16:48:25;31.50;49.00
57434;DHT22;43277;52.672;6.984;2022-08-27T16:51:16;31.20;49.10
57434;DHT22;43277;52.672;6.984;2022-08-27T16:53:43;30.20;50.00
57434;DHT22;43277;52.672;6.984;2022-08-27T16:56:09;29.30;51.30
57434;DHT22;43277;52.672;6.984;2022-08-27T16:58:36;28.30;53.40
57434;DHT22;43277;52.672;6.984;2022-08-27T17:01:04;27.30;55.30
57434;DHT22;43277;52.672;6.984;2022-08-27T17:03:31;26.50;57.10